Time;durP1;ratioP1;P1;durP2;ratioP2;P2;SDS_P1;SDS_P2;PMS_P1;PMS_P2;Temp;Humidity;BMP_temperature;BMP_pressure;BME280_temperature;BME280_humidity;BME280_pressure;Samples;Min_cycle;Max_cycle;Signal;HPM_P1;HPM_P2
2021/05/07 00:01:25;;;;;;;6.30;3.15;;;;;;;20.85;43.18;99316.34;5036111;28;20107;-77
2021/05/07 00:03:50;;;;;;;6.00;3.05;;;;;;;21.03;43.20;99351.97;5018646;28;20025;-77
2021/05/07 00:06:16;;;;;;;4.90;2.92;;;;;;;20.93;43.52;99347.28;5036218;28;20106;-76
2021/05/07 00:08:43;;;;;;;8.10;3.58;;;;;;;20.91;43.39;99344.03;5035723;28;20116;-77
2021/05/07 00:11:14;;;;;;;6.93;3.13;;;;;;;20.88;43.80;99342.66;5018496;28;20044;-75
2021/05/07 00:13:40;;;;;;;7.63;2.97;;;;;;;20.89;43.58;99336.25;5035992;28;20102;-77
2021/05/07 00:16:05;;;;;;;9.68;3.30;;;;;;;20.91;43.86;99342.16;5035873;28;20360;-77
2021/05/07 00:18:31;;;;;;;6.38;3.00;;;;;;;20.82;43.72;99322.22;5035899;28;20109;-76
2021/05/07 00:20:56;;;;;;;8.10;3.35;;;;;;;20.74;43.83;99325.28;5035865;28;20025;-76
2021/05/07 00:23:22;;;;;;;7.97;3.38;;;;;;;20.71;43.86;99322.31;5035760;28;20355;-75
2021/05/07 00:25:50;;;;;;;9.10;3.03;;;;;;;20.82;43.93;99337.50;5019839;28;20025;-77
2021/05/07 00:28:17;;;;;;;5.53;3.47;;;;;;;20.51;44.22;99298.72;5038185;28;20049;-75
2021/05/07 00:30:43;;;;;;;7.72;3.47;;;;;;;20.53;44.38;99320.72;5018020;28;20033;-75
2021/05/07 00:33:09;;;;;;;7.40;3.33;;;;;;;20.58;44.55;99326.16;5035648;28;20021;-77
2021/05/07 00:35:35;;;;;;;7.07;3.15;;;;;;;20.42;44.50;99297.53;5035535;28;20025;-76
2021/05/07 00:38:00;;;;;;;7.90;3.28;;;;;;;20.60;44.52;99324.84;5035597;28;20128;-76
2021/05/07 00:40:26;;;;;;;5.18;2.90;;;;;;;20.51;44.36;99304.88;5035391;28;20451;-76
2021/05/07 00:42:51;;;;;;;5.07;3.13;;;;;;;20.61;44.52;99313.06;5035454;28;20095;-76
2021/05/07 00:45:18;;;;;;;4.95;3.28;;;;;;;20.68;44.36;99320.13;5035654;28;20068;-77
2021/05/07 00:47:48;;;;;;;6.93;3.40;;;;;;;20.42;44.54;99290.28;5035221;28;20026;-76
2021/05/07 00:50:15;;;;;;;6.40;3.00;;;;;;;20.71;44.14;99322.31;5035266;28;20387;-76
2021/05/07 00:52:41;;;;;;;4.43;3.25;;;;;;;20.43;44.68;99291.91;5035189;28;20029;-76
2021/05/07 00:55:07;;;;;;;6.80;2.95;;;;;;;20.66;44.51;99320.38;5035314;28;20064;-76
2021/05/07 00:57:34;;;;;;;5.15;2.67;;;;;;;20.69;44.47;99319.06;5035158;28;20037;-77
2021/05/07 00:59:59;;;;;;;6.38;3.25;;;;;;;20.52;44.34;99297.66;5035202;28;20026;-75
2021/05/07 01:02:25;;;;;;;7.35;3.30;;;;;;;20.63;44.45;99321.69;5035027;28;20473;-76
2021/05/07 01:04:51;;;;;;;7.18;3.25;;;;;;;20.40;44.58;99291.59;5035069;28;20032;-76
2021/05/07 01:07:17;;;;;;;7.05;3.25;;;;;;;20.49;44.63;99301.66;5035161;28;20451;-75
2021/05/07 01:09:43;;;;;;;7.03;3.63;;;;;;;20.57;44.64;99320.00;5034949;28;20029;-76
2021/05/07 01:12:09;;;;;;;5.95;3.35;;;;;;;20.26;44.86;99281.19;5017437;28;20240;-76
2021/05/07 01:14:35;;;;;;;5.03;2.90;;;;;;;20.47;44.96;99316.34;5034832;28;20021;-76
2021/05/07 01:17:00;;;;;;;5.38;3.60;;;;;;;20.07;45.10;99246.88;5034802;28;20404;-77
2021/05/07 01:19:27;;;;;;;5.40;2.97;;;;;;;20.32;44.98;99292.81;5034137;28;20063;-76
2021/05/07 01:21:53;;;;;;;6.43;2.97;;;;;;;20.42;45.00;99306.38;5034927;28;20086;-74
2021/05/07 01:24:20;;;;;;;6.80;3.25;;;;;;;20.33;45.30;99288.25;5034882;28;20056;-76
2021/05/07 01:26:45;;;;;;;5.72;3.50;;;;;;;20.20;45.18;99276.81;5034429;28;20052;-74
2021/05/07 01:29:11;;;;;;;8.05;3.17;;;;;;;20.03;45.23;99262.63;5034839;28;20022;-76
2021/05/07 01:31:37;;;;;;;8.20;3.58;;;;;;;20.27;45.26;99296.22;5034496;28;20029;-75
2021/05/07 01:34:03;;;;;;;6.97;2.88;;;;;;;20.26;45.33;99297.28;5034568;28;20041;-76
2021/05/07 01:36:29;;;;;;;6.88;3.10;;;;;;;20.29;45.27;99310.19;5034682;28;20021;-76
2021/05/07 01:38:54;;;;;;;8.85;3.40;;;;;;;20.33;45.19;99307.03;5034648;28;20017;-76
2021/05/07 01:41:19;;;;;;;8.02;3.35;;;;;;;20.40;45.07;99311.19;5034554;28;20037;-75
2021/05/07 01:43:45;;;;;;;11.98;3.20;;;;;;;19.97;45.13;99250.19;5034569;28;20018;-76
2021/05/07 01:46:10;;;;;;;4.07;3.08;;;;;;;20.20;45.06;99287.53;5034597;28;20036;-77
2021/05/07 01:48:36;;;;;;;5.78;3.00;;;;;;;19.99;45.08;99258.81;5034317;28;20033;-77
2021/05/07 01:51:07;;;;;;;7.28;3.42;;;;;;;20.32;45.16;99322.28;5034380;28;20116;-76
2021/05/07 01:53:32;;;;;;;7.03;3.35;;;;;;;20.23;45.44;99321.91;5034453;28;20026;-76
2021/05/07 01:55:58;;;;;;;7.03;3.17;;;;;;;19.95;45.59;99289.81;5034560;28;20339;-76
2021/05/07 01:58:23;;;;;;;8.25;4.18;;;;;;;20.12;45.78;99317.47;5034524;28;20064;-76
2021/05/07 02:00:48;;;;;;;7.65;3.28;;;;;;;19.85;45.80;99293.16;5034515;28;20079;-76
2021/05/07 02:03:14;;;;;;;7.00;3.15;;;;;;;20.13;45.73;99331.66;5017511;28;20018;-76
2021/05/07 02:05:40;;;;;;;5.68;3.88;;;;;;;20.09;45.85;99323.31;5035602;28;20344;-76
2021/05/07 02:08:07;;;;;;;8.23;3.30;;;;;;;19.54;45.73;99243.66;5040873;28;20032;-76
2021/05/07 02:10:34;;;;;;;5.13;3.40;;;;;;;19.75;45.79;99284.16;5037189;28;20030;-77
2021/05/07 02:13:03;;;;;;;8.70;3.33;;;;;;;20.01;45.89;99331.72;5034376;28;20025;-77
2021/05/07 02:15:28;;;;;;;6.47;3.72;;;;;;;19.73;46.13;99299.66;5034151;28;20025;-77
2021/05/07 02:17:54;;;;;;;6.93;3.42;;;;;;;19.78;46.03;99321.19;5034266;28;20021;-76
2021/05/07 02:20:22;;;;;;;7.55;3.58;;;;;;;19.89;46.29;99341.72;5034236;28;20025;-76
2021/05/07 02:22:49;;;;;;;6.05;3.25;;;;;;;19.41;46.36;99276.09;5034081;28;20466;-77
2021/05/07 02:25:17;;;;;;;11.63;3.92;;;;;;;19.81;46.60;99353.66;5034151;28;20387;-76
2021/05/07 02:27:43;;;;;;;8.00;3.85;;;;;;;19.56;46.56;99332.59;5033883;28;20053;-76
2021/05/07 02:30:11;;;;;;;7.32;3.75;;;;;;;19.85;46.69;99343.25;5034554;28;20483;-76
2021/05/07 02:32:37;;;;;;;6.18;3.85;;;;;;;19.89;46.56;99342.53;5020274;28;20364;-76
2021/05/07 02:35:04;;;;;;;8.95;4.00;;;;;;;19.91;46.37;99342.28;5037897;28;20051;-77
2021/05/07 02:37:29;;;;;;;9.10;5.45;;;;;;;19.66;46.53;99308.66;5037717;28;20101;-76
2021/05/07 02:39:55;;;;;;;12.77;4.82;;;;;;;19.35;46.75;99272.50;5037889;28;20152;-77
2021/05/07 02:42:20;;;;;;;5.38;3.90;;;;;;;19.44;46.34;99280.94;5037796;28;20029;-76
2021/05/07 02:44:45;;;;;;;10.15;4.60;;;;;;;19.61;46.26;99305.09;5037619;28;20045;-76
2021/05/07 02:47:11;;;;;;;9.98;3.92;;;;;;;19.54;46.27;99294.53;5020078;28;20032;-77
2021/05/07 02:49:37;;;;;;;7.53;4.57;;;;;;;19.82;46.17;99343.75;5037471;28;20021;-76
2021/05/07 02:52:03;;;;;;;5.35;3.70;;;;;;;19.38;45.86;99294.50;5037466;28;20105;-77
2021/05/07 02:54:29;;;;;;;8.40;3.85;;;;;;;19.50;45.68;99324.69;5037652;28;20368;-77
2021/05/07 02:56:55;;;;;;;5.57;3.67;;;;;;;19.43;45.72;99311.47;5037467;28;20033;-76
2021/05/07 02:59:22;;;;;;;7.57;3.88;;;;;;;19.47;45.51;99326.00;5037429;28;20110;-74
2021/05/07 03:01:47;;;;;;;6.93;4.38;;;;;;;19.57;45.47;99336.09;5019680;28;20347;-75
2021/05/07 03:04:12;;;;;;;7.07;3.60;;;;;;;19.53;45.63;99346.47;5019683;28;20029;-77
2021/05/07 03:06:38;;;;;;;6.07;4.05;;;;;;;19.50;45.65;99335.41;5037213;28;20037;-77
2021/05/07 03:09:04;;;;;;;5.45;3.65;;;;;;;19.46;45.68;99342.28;5037391;28;20029;-76
2021/05/07 03:11:29;;;;;;;5.80;3.78;;;;;;;19.30;45.58;99320.56;5037044;28;20068;-76
2021/05/07 03:13:55;;;;;;;5.45;3.80;;;;;;;19.20;45.58;99303.50;5037176;28;20025;-76
2021/05/07 03:16:23;;;;;;;7.38;3.90;;;;;;;19.31;45.73;99324.88;5019615;28;20440;-77
2021/05/07 03:18:49;;;;;;;5.85;4.10;;;;;;;19.42;45.49;99363.38;5036953;28;20368;-76
2021/05/07 03:21:15;;;;;;;8.82;4.43;;;;;;;19.33;45.96;99348.75;5019512;28;20032;-76
2021/05/07 03:23:41;;;;;;;5.57;4.07;;;;;;;19.27;45.98;99349.69;5037014;28;20353;-76
2021/05/07 03:26:06;;;;;;;5.35;4.13;;;;;;;19.31;46.29;99357.00;5037049;28;20022;-76
2021/05/07 03:28:32;;;;;;;7.95;4.10;;;;;;;19.16;46.45;99359.38;5036656;28;20108;-76
2021/05/07 03:30:57;;;;;;;6.07;4.50;;;;;;;18.90;46.53;99338.53;5036898;28;20025;-76
2021/05/07 03:33:22;;;;;;;10.02;4.97;;;;;;;18.75;46.89;99360.44;5036783;28;20036;-76
2021/05/07 03:35:48;;;;;;;11.00;4.00;;;;;;;18.56;46.90;99351.69;5036621;28;20029;-76
2021/05/07 03:38:13;;;;;;;5.68;3.97;;;;;;;18.44;46.96;99342.84;5036762;28;20028;-76
2021/05/07 03:40:39;;;;;;;8.77;3.72;;;;;;;18.45;47.02;99359.72;5036603;28;20025;-77
2021/05/07 03:43:04;;;;;;;6.47;3.90;;;;;;;18.56;47.05;99393.66;5018504;28;20351;-76
2021/05/07 03:45:30;;;;;;;7.50;3.85;;;;;;;18.55;46.98;99365.28;5036508;28;20087;-77
2021/05/07 03:47:55;;;;;;;7.45;4.15;;;;;;;18.45;47.30;99371.22;5018959;28;20037;-77
2021/05/07 03:50:21;;;;;;;8.02;4.20;;;;;;;18.39;47.29;99362.28;5042991;28;20088;-76
2021/05/07 03:52:46;;;;;;;7.18;4.35;;;;;;;18.38;47.61;99378.53;5037219;28;20032;-76
2021/05/07 03:55:13;;;;;;;8.48;3.92;;;;;;;18.41;47.81;99380.75;5036404;28;20474;-76
2021/05/07 03:57:40;;;;;;;6.85;4.05;;;;;;;18.42;47.68;99377.03;5036268;28;20037;-76
2021/05/07 04:00:08;;;;;;;6.40;4.65;;;;;;;18.57;47.53;99387.25;5036439;28;20451;-76
2021/05/07 04:02:34;;;;;;;7.05;4.30;;;;;;;18.58;47.30;99389.72;5036193;28;20027;-76
2021/05/07 04:04:59;;;;;;;9.00;4.55;;;;;;;18.55;47.42;99386.66;5036101;28;20029;-76
2021/05/07 04:07:26;;;;;;;6.38;4.35;;;;;;;18.56;47.46;99393.66;5036191;28;20036;-76
2021/05/07 04:12:31;;;;;;;6.43;4.72;;;;;;;18.23;47.71;99335.44;5036029;28;20463;-76
2021/05/07 04:14:56;;;;;;;7.40;4.47;;;;;;;18.57;47.68;99388.06;5018491;28;20440;-75
2021/05/07 04:17:21;;;;;;;7.40;4.55;;;;;;;18.64;47.81;99391.50;5035935;28;20033;-75
2021/05/07 04:19:47;;;;;;;5.97;4.13;;;;;;;18.69;47.80;99388.13;5035817;28;20036;-76
2021/05/07 04:22:12;;;;;;;6.03;4.70;;;;;;;18.62;47.96;99377.53;5018358;28;20020;-76
2021/05/07 04:24:37;;;;;;;6.43;4.30;;;;;;;18.69;47.94;99367.53;5035663;28;20480;-76
2021/05/07 04:27:03;;;;;;;14.93;4.47;;;;;;;18.76;48.02;99369.28;5035597;28;20041;-76
2021/05/07 04:29:28;;;;;;;9.10;4.38;;;;;;;18.96;47.87;99396.44;5035670;28;20053;-76
2021/05/07 04:31:54;;;;;;;7.32;3.97;;;;;;;18.96;47.83;99389.22;5018086;28;20443;-76
2021/05/07 04:34:20;;;;;;;9.50;4.50;;;;;;;18.79;47.99;99371.47;5035578;28;20071;-77
2021/05/07 04:36:45;;;;;;;14.27;5.13;;;;;;;18.91;48.11;99396.34;5035697;28;20025;-76
2021/05/07 04:39:10;;;;;;;11.05;4.35;;;;;;;19.00;48.09;99395.72;5035581;28;20025;-76
2021/05/07 04:41:36;;;;;;;6.93;4.30;;;;;;;18.89;47.80;99374.34;5035424;28;20420;-76
2021/05/07 04:44:02;;;;;;;10.15;4.53;;;;;;;19.05;47.72;99393.16;5035403;28;20021;-76
2021/05/07 04:46:27;;;;;;;9.15;5.20;;;;;;;19.09;47.97;99400.72;5017775;28;20032;-75
2021/05/07 04:48:53;;;;;;;11.02;5.15;;;;;;;18.98;48.11;99408.53;5035385;28;20059;-76
2021/05/07 04:51:19;;;;;;;5.60;4.88;;;;;;;19.00;48.12;99414.47;5035091;28;20083;-76
2021/05/07 04:53:44;;;;;;;10.73;5.82;;;;;;;18.57;48.09;99328.44;5016923;28;20380;-76
2021/05/07 04:56:09;;;;;;;6.50;4.82;;;;;;;19.23;47.81;99412.78;5035089;28;20349;-76
2021/05/07 04:58:35;;;;;;;6.97;4.80;;;;;;;18.99;47.50;99367.34;5017644;28;20021;-77
2021/05/07 05:01:02;;;;;;;8.07;5.60;;;;;;;19.36;47.77;99409.84;5035143;28;20017;-76
2021/05/07 05:03:27;;;;;;;9.73;5.20;;;;;;;19.35;47.79;99397.53;5035029;28;20389;-76
2021/05/07 05:05:53;;;;;;;6.43;4.80;;;;;;;19.35;47.71;99392.16;5034973;28;20121;-76
2021/05/07 05:08:22;;;;;;;7.10;5.30;;;;;;;19.51;47.64;99398.63;5035063;28;20075;-76
2021/05/07 05:10:48;;;;;;;6.00;4.40;;;;;;;19.67;47.28;99419.31;5034743;28;20128;-76
2021/05/07 05:13:14;;;;;;;9.10;4.40;;;;;;;19.53;47.23;99389.31;5034892;28;20444;-76
2021/05/07 05:15:40;;;;;;;8.70;4.40;;;;;;;19.78;47.04;99413.06;5034818;28;20029;-76
2021/05/07 05:18:05;;;;;;;9.18;5.45;;;;;;;19.89;46.90;99425.59;5017353;28;20436;-77
2021/05/07 05:20:31;;;;;;;9.40;5.75;;;;;;;19.93;46.73;99426.75;5034570;28;20025;-76
2021/05/07 05:22:56;;;;;;;11.10;4.90;;;;;;;19.63;46.50;99375.31;5034717;28;20025;-77
2021/05/07 05:25:22;;;;;;;10.18;5.03;;;;;;;20.10;46.53;99425.97;5034737;28;20017;-77
2021/05/07 05:27:47;;;;;;;6.60;4.60;;;;;;;20.15;45.97;99420.69;5034482;28;20060;-76
2021/05/07 05:30:13;;;;;;;8.93;4.55;;;;;;;20.20;45.79;99416.22;5038542;28;20079;-76
2021/05/07 05:32:38;;;;;;;8.10;5.40;;;;;;;20.00;45.83;99381.03;5040377;28;20101;-76
2021/05/07 05:35:05;;;;;;;7.47;4.55;;;;;;;20.33;45.33;99423.13;5034555;28;20398;-77
2021/05/07 05:37:30;;;;;;;12.43;4.68;;;;;;;20.21;45.27;99407.13;5034281;28;20017;-77
2021/05/07 05:39:56;;;;;;;10.13;4.35;;;;;;;20.41;45.18;99421.94;5034468;28;20017;-76
2021/05/07 05:42:21;;;;;;;7.95;4.75;;;;;;;20.25;45.07;99404.78;5034510;28;20020;-76
2021/05/07 05:44:47;;;;;;;7.20;4.70;;;;;;;20.46;44.89;99430.06;5016952;28;20025;-76
2021/05/07 05:47:13;;;;;;;6.80;3.92;;;;;;;20.49;44.94;99435.75;5017081;28;20037;-73
2021/05/07 05:49:38;;;;;;;4.28;3.88;;;;;;;20.24;44.13;99403.16;5034415;28;20099;-77
2021/05/07 05:52:04;;;;;;;5.10;4.05;;;;;;;20.40;44.53;99433.72;5034237;28;20029;-76
2021/05/07 05:54:29;;;;;;;7.20;4.13;;;;;;;20.49;43.96;99442.97;5034201;28;20032;-76
2021/05/07 05:56:55;;;;;;;6.22;3.78;;;;;;;20.18;43.75;99380.81;5034488;28;20022;-74
2021/05/07 05:59:20;;;;;;;6.88;4.35;;;;;;;20.06;43.64;99361.28;5016772;28;20356;-76
2021/05/07 06:01:46;;;;;;;7.60;3.85;;;;;;;20.41;43.32;99427.31;5034178;28;20092;-76
2021/05/07 06:04:12;;;;;;;3.80;3.40;;;;;;;20.42;43.39;99426.25;5034372;28;20108;-74
2021/05/07 06:06:38;;;;;;;7.80;3.83;;;;;;;20.30;43.19;99405.66;5037018;28;20025;-73
2021/05/07 06:09:04;;;;;;;9.02;4.68;;;;;;;20.04;42.95;99359.91;5038265;28;20036;-76
2021/05/07 06:11:31;;;;;;;7.35;5.72;;;;;;;20.57;42.90;99439.88;5038162;28;20025;-74
2021/05/07 06:13:56;;;;;;;6.85;5.43;;;;;;;20.43;43.45;99423.31;5020554;28;20021;-75
2021/05/07 06:16:21;;;;;;;7.13;5.00;;;;;;;20.52;42.99;99429.06;5038027;28;20025;-77
2021/05/07 06:18:47;;;;;;;8.30;4.60;;;;;;;20.69;43.07;99434.41;5020416;28;20033;-76
2021/05/07 06:21:13;;;;;;;7.35;5.03;;;;;;;20.21;42.92;99337.44;5027289;28;20486;-75
2021/05/07 06:23:39;;;;;;;8.05;3.97;;;;;;;20.83;42.90;99420.44;5017352;28;20325;-76
2021/05/07 06:26:05;;;;;;;8.68;4.53;;;;;;;20.89;42.56;99415.94;5020269;28;20034;-76
2021/05/07 06:28:30;;;;;;;5.22;4.65;;;;;;;20.89;42.39;99399.84;5025777;28;20471;-76
2021/05/07 06:30:58;;;;;;;6.13;4.50;;;;;;;20.97;42.09;99417.38;5018015;28;20033;-76
2021/05/07 06:33:27;;;;;;;6.93;4.70;;;;;;;21.02;42.26;99420.13;5027389;28;20055;-76
2021/05/07 06:35:54;;;;;;;8.73;6.00;;;;;;;21.10;42.33;99433.94;5016136;28;20095;-74
2021/05/07 06:38:19;;;;;;;6.70;4.80;;;;;;;21.25;42.14;99449.47;5012541;28;20029;-76
2021/05/07 06:40:45;;;;;;;7.75;4.18;;;;;;;21.03;42.03;99405.66;5025112;28;20114;-76
2021/05/07 06:43:11;;;;;;;8.23;4.00;;;;;;;21.30;41.78;99437.97;5034746;28;20022;-76
2021/05/07 06:45:37;;;;;;;6.97;4.10;;;;;;;20.97;42.02;99410.16;5024716;28;20030;-74
2021/05/07 06:48:03;;;;;;;4.28;3.65;;;;;;;21.10;42.01;99419.69;5027341;28;20029;-77
2021/05/07 06:50:28;;;;;;;7.07;3.95;;;;;;;20.87;41.71;99367.06;5019663;28;20103;-76
2021/05/07 06:52:54;;;;;;;4.93;3.65;;;;;;;21.25;42.28;99431.47;5030405;28;20377;-76
2021/05/07 06:55:19;;;;;;;6.78;3.72;;;;;;;21.40;41.91;99438.09;5017404;28;20508;-75
2021/05/07 06:57:46;;;;;;;7.70;5.05;;;;;;;21.49;41.62;99425.81;5017362;28;20024;-74
2021/05/07 07:00:12;;;;;;;9.50;3.67;;;;;;;21.61;41.62;99431.09;5029289;28;20108;-77
2021/05/07 07:02:37;;;;;;;6.68;4.38;;;;;;;21.67;41.42;99438.94;5019532;28;20102;-76
2021/05/07 07:05:04;;;;;;;7.43;4.57;;;;;;;21.42;41.37;99376.88;5033308;28;20038;-76
2021/05/07 07:07:30;;;;;;;7.45;3.78;;;;;;;21.60;41.14;99414.16;5020074;28;20109;-76
2021/05/07 07:09:55;;;;;;;5.22;4.72;;;;;;;21.82;41.43;99433.72;5023040;28;20110;-75
2021/05/07 07:12:21;;;;;;;6.75;4.22;;;;;;;21.93;40.90;99415.00;5010086;28;20090;-76
2021/05/07 07:14:47;;;;;;;6.32;4.40;;;;;;;22.26;40.73;99435.47;5013243;28;20444;-76
2021/05/07 07:17:12;;;;;;;5.05;3.90;;;;;;;22.34;40.30;99429.66;5005534;28;20029;-77
2021/05/07 07:19:38;;;;;;;5.13;3.50;;;;;;;22.37;40.13;99426.44;5025510;28;20506;-77
2021/05/07 07:22:04;;;;;;;5.93;3.60;;;;;;;22.32;39.93;99402.22;5036100;28;20023;-77
2021/05/07 07:24:30;;;;;;;6.15;4.40;;;;;;;22.59;39.83;99423.66;5001869;28;20037;-76
2021/05/07 07:26:55;;;;;;;6.72;4.03;;;;;;;22.58;39.76;99420.16;4996009;28;20047;-75
2021/05/07 07:29:21;;;;;;;6.60;3.60;;;;;;;22.57;39.65;99415.84;4997398;28;20393;-76
2021/05/07 07:31:47;;;;;;;4.47;3.50;;;;;;;22.85;39.73;99427.31;4996071;28;20026;-76
2021/05/07 07:34:12;;;;;;;6.78;3.50;;;;;;;22.88;39.38;99416.03;4997459;28;20027;-76
2021/05/07 07:36:38;;;;;;;7.82;7.03;;;;;;;23.02;39.35;99426.06;5011854;28;20092;-76
2021/05/07 07:39:04;;;;;;;8.90;6.75;;;;;;;23.13;39.01;99426.97;5014700;28;20033;-76
2021/05/07 07:41:29;;;;;;;5.38;4.03;;;;;;;22.97;38.60;99401.81;4997861;28;20076;-76
2021/05/07 07:43:55;;;;;;;4.40;3.67;;;;;;;23.08;38.63;99421.53;5013885;28;20167;-77
2021/05/07 07:46:20;;;;;;;6.50;3.53;;;;;;;23.19;38.49;99417.00;5011205;28;20029;-77
2021/05/07 07:48:46;;;;;;;9.85;6.22;;;;;;;23.29;38.63;99407.09;5000534;28;20444;-77
2021/05/07 07:51:11;;;;;;;4.68;3.80;;;;;;;23.05;38.42;99397.84;5008412;28;20141;-76
2021/05/07 07:53:36;;;;;;;5.68;3.53;;;;;;;23.42;38.29;99389.59;5006112;28;20026;-78
2021/05/07 07:56:02;;;;;;;14.38;9.73;;;;;;;23.32;38.02;99359.94;5007046;28;20421;-76
2021/05/07 07:58:27;;;;;;;6.25;4.28;;;;;;;23.63;37.90;99398.56;5014023;28;20030;-77
2021/05/07 08:00:54;;;;;;;5.53;4.13;;;;;;;23.60;37.61;99385.63;5014426;28;20030;-77
2021/05/07 08:03:20;;;;;;;5.57;3.42;;;;;;;23.65;37.68;99393.72;5006865;28;20033;-77
2021/05/07 08:05:45;;;;;;;10.18;4.40;;;;;;;23.26;37.44;99326.78;4997971;28;20029;-77
2021/05/07 08:08:11;;;;;;;6.97;4.85;;;;;;;23.65;37.57;99399.13;4996267;28;20505;-77
2021/05/07 08:10:36;;;;;;;5.65;3.97;;;;;;;23.71;37.57;99381.88;4999973;28;20013;-78
2021/05/07 08:13:02;;;;;;;6.00;4.00;;;;;;;23.76;37.27;99358.44;5008533;28;20038;-75
2021/05/07 08:15:28;;;;;;;6.88;4.20;;;;;;;24.06;37.49;99376.53;5016759;28;20026;-78
2021/05/07 08:17:54;;;;;;;5.68;3.80;;;;;;;24.01;37.00;99343.34;4996977;28;20113;-76
2021/05/07 08:20:21;;;;;;;6.68;4.10;;;;;;;24.24;36.67;99358.16;4996077;28;20022;-76
2021/05/07 08:22:47;;;;;;;6.60;4.32;;;;;;;24.31;36.51;99364.94;4995007;28;20022;-76
2021/05/07 08:25:13;;;;;;;6.28;4.13;;;;;;;24.25;36.49;99335.50;4996133;28;20467;-77
2021/05/07 08:27:40;;;;;;;5.65;4.55;;;;;;;24.47;36.29;99363.00;5006457;28;20153;-76
2021/05/07 08:30:07;;;;;;;7.38;4.32;;;;;;;24.42;36.30;99359.50;5015699;28;20322;-76
2021/05/07 08:32:33;;;;;;;10.00;5.22;;;;;;;24.56;36.51;99353.31;5015434;28;20022;-77
2021/05/07 08:34:59;;;;;;;9.30;5.60;;;;;;;24.73;36.22;99349.47;5015780;28;20103;-77
2021/05/07 08:37:25;;;;;;;10.15;4.95;;;;;;;24.51;36.08;99296.59;5015869;28;20424;-75
2021/05/07 08:39:52;;;;;;;9.88;4.40;;;;;;;24.95;35.81;99336.41;5015422;28;20058;-76
2021/05/07 08:42:19;;;;;;;8.85;4.57;;;;;;;24.94;35.85;99316.69;5022747;28;20416;-77
2021/05/07 08:44:44;;;;;;;6.82;3.70;;;;;;;25.13;35.54;99338.50;5043787;28;20029;-76
2021/05/07 08:47:09;;;;;;;8.23;4.45;;;;;;;25.23;35.64;99332.25;5037911;28;20439;-77
2021/05/07 08:49:36;;;;;;;8.63;4.97;;;;;;;25.47;35.54;99349.41;5035047;28;20025;-74
2021/05/07 08:52:01;;;;;;;9.43;6.00;;;;;;;25.46;35.00;99330.78;5035084;28;20032;-75
2021/05/07 08:54:28;;;;;;;5.72;4.28;;;;;;;25.56;34.90;99338.81;5035367;28;20029;-77
2021/05/07 08:56:55;;;;;;;7.10;3.95;;;;;;;25.61;34.67;99334.19;5034800;28;20040;-76
2021/05/07 08:59:20;;;;;;;6.13;4.00;;;;;;;25.66;34.83;99333.38;5035003;28;20037;-76
2021/05/07 09:01:48;;;;;;;8.50;5.55;;;;;;;25.80;35.10;99328.13;5034831;28;20028;-75
2021/05/07 09:04:16;;;;;;;6.95;4.93;;;;;;;25.96;34.92;99314.19;5034823;28;20091;-75
2021/05/07 09:06:53;;;;;;;7.60;3.85;;;;;;;26.06;34.77;99301.69;5017369;28;20486;-74
2021/05/07 09:09:28;;;;;;;8.13;5.53;;;;;;;26.30;34.77;99297.09;5034847;28;20030;-74
2021/05/07 09:11:55;;;;;;;15.70;11.18;;;;;;;26.10;35.13;99284.59;5034737;28;20791;-77
2021/05/07 09:14:22;;;;;;;7.40;6.28;;;;;;;26.38;34.68;99307.31;5017253;28;20436;-77
2021/05/07 09:17:02;;;;;;;7.22;4.55;;;;;;;26.69;34.42;99305.06;5034648;28;20038;-78
2021/05/07 09:19:29;;;;;;;7.28;4.40;;;;;;;26.83;34.01;99299.78;5017217;28;20053;-75
2021/05/07 09:21:56;;;;;;;6.85;5.07;;;;;;;26.58;34.17;99250.22;5034543;28;20432;-75
2021/05/07 09:24:36;;;;;;;6.32;4.75;;;;;;;26.69;34.04;99285.28;5034590;28;20029;-76
2021/05/07 09:27:03;;;;;;;6.95;6.25;;;;;;;26.55;34.41;99277.88;5034515;28;20061;-77
2021/05/07 09:29:31;;;;;;;5.63;3.58;;;;;;;26.46;34.51;99276.91;5017206;28;20051;-77
2021/05/07 09:32:00;;;;;;;7.60;5.07;;;;;;;26.02;34.99;99214.06;5034492;28;20037;-77
2021/05/07 09:34:25;;;;;;;6.20;5.03;;;;;;;26.32;34.96;99246.19;5016805;28;20431;-75
2021/05/07 09:36:51;;;;;;;8.93;4.93;;;;;;;26.46;34.95;99273.38;5034468;28;20053;-76
2021/05/07 09:39:26;;;;;;;7.05;4.50;;;;;;;26.60;34.78;99263.47;5034449;28;20339;-76
2021/05/07 09:41:52;;;;;;;8.32;4.68;;;;;;;26.57;34.81;99237.78;5034184;28;20435;-77
2021/05/07 09:44:23;;;;;;;7.30;4.15;;;;;;;26.77;34.89;99263.81;5034696;28;20028;-77
2021/05/07 09:46:51;;;;;;;7.57;3.75;;;;;;;26.79;34.91;99267.03;5034377;28;20022;-77
2021/05/07 09:49:31;;;;;;;11.70;4.20;;;;;;;26.90;35.03;99267.72;5034232;28;20042;-77
2021/05/07 09:51:58;;;;;;;5.47;2.70;;;;;;;26.97;34.39;99260.03;5034116;28;20029;-76
2021/05/07 09:54:24;;;;;;;6.10;3.85;;;;;;;27.04;34.65;99252.38;5034464;28;20104;-76
2021/05/07 09:56:50;;;;;;;8.45;3.97;;;;;;;26.91;34.41;99209.72;5034145;28;20359;-76
2021/05/07 09:59:18;;;;;;;5.00;2.83;;;;;;;27.10;34.06;99207.03;5016865;28;20025;-77
2021/05/07 10:01:44;;;;;;;5.13;3.28;;;;;;;27.23;34.04;99214.41;5034125;28;20025;-77
2021/05/07 10:04:14;;;;;;;5.25;2.88;;;;;;;27.56;33.82;99239.66;5034067;28;20037;-76
2021/05/07 10:06:40;;;;;;;5.28;2.97;;;;;;;27.77;33.70;99227.38;5034096;28;20142;-76
2021/05/07 10:09:07;;;;;;;7.65;2.75;;;;;;;27.95;32.89;99209.41;5034203;28;20040;-75
2021/05/07 10:11:36;;;;;;;6.97;3.20;;;;;;;27.85;32.74;99153.41;5034118;28;20444;-76
2021/05/07 10:14:07;;;;;;;7.68;3.03;;;;;;;28.51;32.21;99204.81;5034230;28;20025;-75
2021/05/07 10:16:35;;;;;;;4.05;2.92;;;;;;;28.80;31.67;99199.81;5034204;28;20041;-77
2021/05/07 10:19:09;;;;;;;5.05;3.72;;;;;;;28.73;31.66;99164.91;5034844;28;20499;-75
2021/05/07 10:21:43;;;;;;;4.40;3.28;;;;;;;28.97;31.66;99182.88;5022815;28;20343;-75
2021/05/07 10:24:14;;;;;;;5.28;3.30;;;;;;;29.24;30.91;99173.81;5034224;28;20095;-75
2021/05/07 10:26:42;;;;;;;4.75;2.70;;;;;;;29.24;30.55;99142.00;5033868;28;20567;-74
2021/05/07 10:29:22;;;;;;;5.57;3.33;;;;;;;29.38;30.71;99174.56;5016454;28;20107;-77
2021/05/07 10:31:53;;;;;;;6.23;3.47;;;;;;;29.19;29.90;99180.19;5016404;28;20037;-76
2021/05/07 10:34:20;;;;;;;5.63;2.30;;;;;;;28.90;30.33;99167.00;5034397;28;20385;-76
2021/05/07 10:36:47;;;;;;;6.07;2.70;;;;;;;28.76;30.18;99177.09;5034023;28;20025;-77
2021/05/07 10:39:30;;;;;;;4.93;2.13;;;;;;;28.58;29.93;99140.00;5016405;28;20025;-77
2021/05/07 10:41:58;;;;;;;4.13;2.22;;;;;;;28.89;29.15;99159.16;5033465;28;20041;-77
2021/05/07 10:44:26;;;;;;;3.40;2.22;;;;;;;28.94;28.37;99168.00;5033731;28;20103;-77
2021/05/07 10:47:06;;;;;;;4.15;2.13;;;;;;;28.92;27.27;99159.34;5033685;28;20372;-76
2021/05/07 10:49:35;;;;;;;4.93;1.65;;;;;;;28.71;26.34;99133.72;5016347;28;20451;-76
2021/05/07 10:52:03;;;;;;;6.15;1.80;;;;;;;29.30;25.43;99172.59;5035441;28;20030;-76
2021/05/07 10:54:39;;;;;;;6.47;1.60;;;;;;;29.88;23.97;99175.19;5037263;28;20052;-76
2021/05/07 10:57:17;;;;;;;3.28;1.50;;;;;;;29.74;24.20;99111.88;5037273;28;20164;-75
2021/05/07 11:00:04;;;;;;;5.88;1.48;;;;;;;29.60;22.31;99144.63;5037489;28;20034;-77
2021/05/07 11:02:41;;;;;;;4.72;1.20;;;;;;;28.90;24.22;99093.63;5037668;28;20030;-78
2021/05/07 11:05:07;;;;;;;3.60;1.23;;;;;;;29.02;23.64;99136.56;5038345;28;20030;-76
2021/05/07 11:07:34;;;;;;;3.42;1.45;;;;;;;28.91;24.10;99152.28;5037405;28;20119;-76
2021/05/07 11:10:11;;;;;;;2.25;1.35;;;;;;;28.83;24.62;99150.28;5037101;28;20086;-75
2021/05/07 11:12:41;;;;;;;8.13;1.42;;;;;;;29.05;24.18;99153.06;5037855;28;20032;-76
2021/05/07 11:15:15;;;;;;;4.70;1.30;;;;;;;29.10;23.87;99117.59;5021305;28;20163;-76
2021/05/07 11:17:40;;;;;;;6.35;1.88;;;;;;;29.52;24.36;99139.94;5020405;28;20416;-77
2021/05/07 11:20:07;;;;;;;4.30;2.15;;;;;;;29.91;23.82;99131.00;5038289;28;20028;-74
2021/05/07 11:22:34;;;;;;;5.38;1.50;;;;;;;30.22;23.12;99102.91;5037270;28;20025;-76
2021/05/07 11:25:00;;;;;;;3.90;1.80;;;;;;;30.23;23.62;99050.03;5003162;28;20036;-76
2021/05/07 11:27:27;;;;;;;4.45;1.55;;;;;;;30.87;22.37;99102.81;5036780;28;20033;-78
2021/05/07 11:30:13;;;;;;;5.60;1.48;;;;;;;30.85;22.07;99115.97;5036648;28;20091;-77
2021/05/07 11:32:39;;;;;;;5.47;1.48;;;;;;;30.48;22.10;99114.66;5036379;28;20036;-75